createdAt,value
2022-12-27T00:00:55.117Z,97197.78
2022-12-27T00:10:08.047Z,97193.34
2022-12-27T00:29:10.499Z,97213.66
2022-12-27T00:39:56.429Z,97219.59
2022-12-27T00:48:30.140Z,97208.84
2022-12-27T00:54:24.292Z,97200.50
2022-12-27T00:57:25.120Z,97199.03
2022-12-27T01:01:28.876Z,97190.25
2022-12-27T01:04:21.016Z,97202.47
2022-12-27T01:11:05.025Z,97183.72
2022-12-27T01:16:11.378Z,97197.09
2022-12-27T01:22:27.338Z,97190.56
2022-12-27T01:25:58.254Z,97203.34
2022-12-27T01:28:42.144Z,97198.59
2022-12-27T01:44:00.377Z,97197.88
2022-12-27T01:46:50.335Z,97194.34
2022-12-27T01:50:33.961Z,97204.28
2022-12-27T01:53:23.160Z,97209.47
2022-12-27T02:00:03.624Z,97206.09
2022-12-27T02:03:13.329Z,97206.81
2022-12-27T02:09:24.794Z,97222.44
2022-12-27T02:15:52.721Z,97219.03
2022-12-27T02:18:57.135Z,97230.16
2022-12-27T02:29:09.272Z,97234.97
2022-12-27T02:32:54.884Z,97219.66
2022-12-27T02:35:47.452Z,97224.59
2022-12-27T02:46:39.033Z,97222.31
2022-12-27T03:10:35.870Z,97216.31
2022-12-27T03:14:07.071Z,97212.56
2022-12-27T03:20:20.710Z,97204.00
2022-12-27T04:09:45.505Z,97226.47
2022-12-27T04:21:32.371Z,97216.44
2022-12-27T05:31:24.568Z,97208.38
2022-12-27T05:50:50.622Z,97227.25
2022-12-27T05:56:59.587Z,97232.28
2022-12-27T06:00:20.247Z,97226.38
2022-12-27T06:03:08.556Z,97228.50
2022-12-27T06:05:35.299Z,97233.22
2022-12-27T06:08:27.231Z,97240.50
2022-12-27T06:18:14.970Z,97242.47
2022-12-27T06:25:14.513Z,97250.44
2022-12-27T06:32:07.033Z,97243.06
2022-12-27T06:40:08.457Z,97253.75
2022-12-27T06:52:41.273Z,97266.72
2022-12-27T06:56:12.103Z,97270.81
2022-12-27T07:00:03.662Z,97278.63
2022-12-27T07:12:59.697Z,97292.44
2022-12-27T07:33:52.825Z,97299.94
2022-12-27T07:57:32.907Z,97307.69
2022-12-27T09:03:58.190Z,97334.78
2022-12-27T09:18:18.411Z,97346.84
2022-12-27T09:45:06.201Z,97359.19
2022-12-27T10:10:52.038Z,97357.72
2022-12-27T10:13:49.858Z,97356.34
2022-12-27T10:16:40.159Z,97350.19
2022-12-27T10:19:34.771Z,97345.94
2022-12-27T10:25:46.253Z,97345.16
2022-12-27T11:37:25.880Z,97257.69
2022-12-27T11:59:50.284Z,97224.38
2022-12-27T12:13:42.932Z,97221.13
2022-12-27T12:20:24.361Z,97210.88
2022-12-27T12:58:27.406Z,97182.47
2022-12-27T13:05:09.705Z,97178.50
2022-12-27T13:08:14.679Z,97183.97
2022-12-27T13:11:35.837Z,97191.47
2022-12-27T13:14:58.467Z,97189.31
2022-12-27T13:18:07.300Z,97191.41
2022-12-27T13:21:11.123Z,97177.28
2022-12-27T13:24:11.319Z,97184.41
2022-12-27T13:27:09.079Z,97189.31
2022-12-27T13:30:06.367Z,97183.53
2022-12-27T13:32:55.528Z,97178.03
2022-12-27T13:35:39.510Z,97173.34
2022-12-27T13:38:46.294Z,97182.81
2022-12-27T13:41:54.697Z,97171.91
2022-12-27T13:45:03.539Z,97177.50
2022-12-27T13:48:04.182Z,97170.22
2022-12-27T13:51:26.410Z,97177.91
2022-12-27T13:58:06.655Z,97178.25
2022-12-27T14:01:05.346Z,97176.09
2022-12-27T14:04:38.989Z,97177.25
2022-12-27T14:07:41.942Z,97187.69
2022-12-27T14:10:42.025Z,97186.69
2022-12-27T14:13:45.060Z,97190.41
2022-12-27T14:16:36.045Z,97197.78
2022-12-27T14:20:00.668Z,97192.47
2022-12-27T14:23:15.246Z,97193.53
2022-12-27T14:26:24.342Z,97194.66
2022-12-27T14:33:11.373Z,97205.22
2022-12-27T14:37:45.523Z,97203.94
2022-12-27T14:39:59.768Z,97221.88
2022-12-27T14:43:12.243Z,97203.06
2022-12-27T14:46:27.303Z,97207.69
2022-12-27T14:49:46.199Z,97208.97
2022-12-27T14:53:04.242Z,97214.91
2022-12-27T14:59:26.602Z,97211.66
2022-12-27T15:02:29.991Z,97221.03
2022-12-27T15:05:31.088Z,97211.78
2022-12-27T15:08:41.420Z,97224.75
2022-12-27T15:11:48.182Z,97218.84
2022-12-27T15:14:43.831Z,97222.75
2022-12-27T15:21:41.716Z,97226.88
2022-12-27T15:24:58.911Z,97240.94
2022-12-27T15:31:17.084Z,97254.28
2022-12-27T15:34:15.151Z,97258.78
2022-12-27T15:37:01.650Z,97255.09
2022-12-27T15:39:48.968Z,97256.88
2022-12-27T15:42:48.124Z,97263.41
2022-12-27T15:45:57.194Z,97272.06
2022-12-27T15:49:23.542Z,97284.81
2022-12-27T15:52:38.565Z,97269.91
2022-12-27T16:09:52.440Z,97282.97
2022-12-27T16:12:38.303Z,97281.84
2022-12-27T16:15:43.577Z,97287.91
2022-12-27T16:18:22.576Z,97293.31
2022-12-27T16:21:12.661Z,97292.66
2022-12-27T16:23:50.794Z,97289.78
2022-12-27T16:26:36.409Z,97287.84
2022-12-27T16:29:15.069Z,97289.94
2022-12-27T16:31:47.691Z,97299.31
2022-12-27T16:41:40.189Z,97293.13
2022-12-27T16:48:35.319Z,97299.13
2022-12-27T16:55:07.563Z,97295.22
2022-12-27T16:58:40.935Z,97289.25
2022-12-27T17:01:28.325Z,97294.06
2022-12-27T17:04:39.737Z,97284.66
2022-12-27T17:33:59.772Z,97313.69
2022-12-27T17:47:50.354Z,97334.75
2022-12-27T17:50:25.566Z,97325.91
2022-12-27T17:53:32.518Z,97324.31
2022-12-27T17:56:42.351Z,97338.50
2022-12-27T17:59:13.343Z,97331.53
2022-12-27T18:01:48.711Z,97336.13
2022-12-27T18:04:24.494Z,97335.78
2022-12-27T18:07:02.874Z,97343.19
2022-12-27T18:09:40.894Z,97344.72
2022-12-27T18:12:14.687Z,97338.16
2022-12-27T18:14:41.990Z,97343.78
2022-12-27T18:17:28.937Z,97354.75
2022-12-27T18:19:56.074Z,97352.25
2022-12-27T18:22:22.647Z,97354.75
2022-12-27T18:24:51.855Z,97367.63
2022-12-27T18:27:24.607Z,97362.16
2022-12-27T18:29:52.059Z,97362.41
2022-12-27T18:32:19.485Z,97355.06
2022-12-27T18:35:12.875Z,97364.22
2022-12-27T18:37:40.568Z,97364.69
2022-12-27T18:40:17.493Z,97365.72
2022-12-27T18:42:49.057Z,97368.03
2022-12-27T18:45:22.313Z,97362.94
2022-12-27T18:47:50.208Z,97364.78
2022-12-27T18:50:22.683Z,97374.00
2022-12-27T18:53:01.683Z,97372.38
2022-12-27T18:55:28.936Z,97366.19
2022-12-27T18:58:06.640Z,97373.63
2022-12-27T19:00:47.851Z,97381.81
2022-12-27T19:03:33.826Z,97385.81
2022-12-27T19:06:16.708Z,97378.66
2022-12-27T19:08:53.228Z,97373.47
2022-12-27T19:11:33.081Z,97374.00
2022-12-27T19:14:07.950Z,97378.94
2022-12-27T19:26:55.443Z,97394.59
2022-12-27T19:29:42.521Z,97385.25
2022-12-27T19:33:01.678Z,97394.00
2022-12-27T19:35:29.095Z,97395.53
2022-12-27T19:37:57.333Z,97385.13
2022-12-27T19:43:57.701Z,97389.47
2022-12-27T19:51:14.694Z,97396.88
2022-12-27T19:53:43.131Z,97396.63
2022-12-27T19:56:27.897Z,97394.88
2022-12-27T19:58:54.868Z,97395.38
2022-12-27T20:01:21.509Z,97396.13
2022-12-27T20:03:48.037Z,97401.59
2022-12-27T20:06:22.975Z,97405.69
2022-12-27T20:08:53.191Z,97406.72
2022-12-27T20:11:22.883Z,97408.44
2022-12-27T20:13:50.320Z,97415.25
2022-12-27T20:23:19.900Z,97432.59
2022-12-27T20:26:33.038Z,97427.53
2022-12-27T20:28:53.695Z,97436.88
2022-12-27T20:31:27.712Z,97438.25
2022-12-27T20:37:24.939Z,97432.34
2022-12-27T20:42:42.400Z,97444.25
2022-12-27T20:45:12.913Z,97453.59
2022-12-27T20:47:40.491Z,97449.97
2022-12-27T20:50:09.838Z,97461.22
2022-12-27T20:52:47.128Z,97461.22
2022-12-27T20:55:16.557Z,97462.66
2022-12-27T20:57:43.308Z,97457.25
2022-12-27T21:00:11.910Z,97461.47
2022-12-27T21:02:39.930Z,97473.16
2022-12-27T21:05:09.904Z,97460.56
2022-12-27T21:09:06.746Z,97467.69
2022-12-27T21:11:33.598Z,97460.47
2022-12-27T21:14:01.694Z,97450.28
2022-12-27T21:16:30.816Z,97458.84
2022-12-27T21:18:57.959Z,97463.13
2022-12-27T21:21:28.740Z,97467.69
2022-12-27T21:26:41.055Z,97468.38
2022-12-27T21:29:16.296Z,97462.06
2022-12-27T21:31:45.995Z,97464.63
2022-12-27T21:34:13.082Z,97461.03
2022-12-27T21:36:39.625Z,97475.88
2022-12-27T21:39:45.927Z,97473.53
2022-12-27T21:45:38.813Z,97469.88
2022-12-27T21:48:06.023Z,97478.34
2022-12-27T21:50:37.520Z,97489.59
2022-12-27T21:54:30.855Z,97499.69
2022-12-27T21:56:57.416Z,97491.69
2022-12-27T21:59:58.124Z,97482.94
2022-12-27T22:02:38.510Z,97467.84
2022-12-27T22:05:18.390Z,97481.69
2022-12-27T22:07:44.980Z,97487.66
2022-12-27T22:10:21.971Z,97484.88
2022-12-27T22:12:55.207Z,97489.09
2022-12-27T22:15:31.448Z,97490.50
2022-12-27T22:18:02.607Z,97488.59
2022-12-27T22:20:30.627Z,97487.38
2022-12-27T22:22:57.234Z,97493.44
2022-12-27T22:35:27.772Z,97495.09
2022-12-27T22:38:15.871Z,97497.56
2022-12-27T22:56:23.502Z,97486.69
2022-12-27T23:06:50.726Z,97499.91
2022-12-27T23:09:44.812Z,97502.16
2022-12-27T23:15:51.413Z,97493.53
2022-12-27T23:18:21.121Z,97482.69
2022-12-27T23:24:22.446Z,97486.28
2022-12-27T23:27:26.098Z,97486.53
2022-12-27T23:29:52.656Z,97487.59
2022-12-27T23:32:19.272Z,97484.91
2022-12-27T23:35:05.004Z,97501.56
2022-12-27T23:37:31.658Z,97501.34
